Time;durP1;ratioP1;P1;durP2;ratioP2;P2;SDS_P1;SDS_P2;PMS_P1;PMS_P2;Temp;Humidity;BMP_temperature;BMP_pressure;BME280_temperature;BME280_humidity;BME280_pressure;Samples;Min_cycle;Max_cycle;Signal;HPM_P1;HPM_P2
2022/07/17 00:01:52;;;;;;;7.20;1.60;;;;;;;12.53;83.37;100842.70;84791;1327;25556;-72
2022/07/17 00:04:01;;;;;;;3.30;1.40;;;;;;;12.53;83.30;100845.83;84786;1326;22596;-70
2022/07/17 00:06:10;;;;;;;5.00;1.20;;;;;;;12.52;83.20;100846.08;84794;1327;22597;-71
2022/07/17 00:08:19;;;;;;;2.90;1.60;;;;;;;12.52;83.24;100845.35;84802;1324;25003;-71
2022/07/17 00:10:28;;;;;;;3.60;1.70;;;;;;;12.51;83.19;100847.13;84800;1327;22669;-72
2022/07/17 00:12:37;;;;;;;2.70;1.40;;;;;;;12.52;83.26;100849.04;84808;1325;25500;-72
2022/07/17 00:14:46;;;;;;;6.10;1.70;;;;;;;12.53;83.26;100851.95;84805;1327;22849;-70
2022/07/17 00:16:55;;;;;;;1.80;1.10;;;;;;;12.53;83.33;100852.16;84820;1325;22598;-72
2022/07/17 00:19:03;;;;;;;2.00;1.60;;;;;;;12.53;83.18;100857.77;84782;1326;24235;-70
2022/07/17 00:21:12;;;;;;;3.80;1.30;;;;;;;12.54;83.53;100858.05;84830;1325;25494;-72
2022/07/17 00:23:21;;;;;;;8.70;1.60;;;;;;;12.56;83.50;100864.27;84780;1327;24016;-70
2022/07/17 00:25:32;;;;;;;3.90;1.90;;;;;;;12.56;83.47;100863.20;84823;1328;24996;-71
2022/07/17 00:27:40;;;;;;;5.20;2.40;;;;;;;12.57;83.35;100867.73;84832;1324;25282;-70
2022/07/17 00:29:49;;;;;;;4.60;1.60;;;;;;;12.58;83.70;100865.75;84800;1328;22571;-71
2022/07/17 00:31:58;;;;;;;4.40;1.50;;;;;;;12.59;83.53;100871.16;84812;1321;22836;-72
2022/07/17 00:34:07;;;;;;;2.10;1.30;;;;;;;12.58;83.36;100872.42;84778;1325;24127;-69
2022/07/17 00:36:16;;;;;;;5.70;1.70;;;;;;;12.59;83.44;100875.54;84802;1327;22593;-70
2022/07/17 00:38:25;;;;;;;1.80;1.40;;;;;;;12.59;83.42;100878.88;84831;1327;24960;-69
2022/07/17 00:40:34;;;;;;;1.60;1.30;;;;;;;12.61;83.49;100879.48;84807;1327;22577;-70
2022/07/17 00:42:44;;;;;;;5.70;1.80;;;;;;;12.61;83.57;100880.87;84824;1325;22596;-71
2022/07/17 00:44:53;;;;;;;2.80;1.10;;;;;;;12.60;83.51;100878.45;84803;1321;22582;-73
2022/07/17 00:47:02;;;;;;;4.20;1.50;;;;;;;12.58;83.68;100881.50;84818;1326;24044;-70
2022/07/17 00:49:11;;;;;;;3.60;1.70;;;;;;;12.57;83.40;100877.89;84802;1326;22658;-72
2022/07/17 00:51:20;;;;;;;5.70;1.80;;;;;;;12.56;83.54;100882.11;84804;1325;22608;-71
2022/07/17 00:53:29;;;;;;;4.30;1.90;;;;;;;12.55;83.54;100880.25;84777;1326;22596;-70
2022/07/17 00:55:38;;;;;;;3.10;1.80;;;;;;;12.50;83.47;100883.05;84812;1324;25450;-72
2022/07/17 00:57:48;;;;;;;2.50;1.40;;;;;;;12.48;83.43;100889.79;84836;1325;22730;-72
2022/07/17 00:59:57;;;;;;;6.00;1.40;;;;;;;12.43;83.49;100897.49;84794;1321;22581;-72
2022/07/17 01:02:07;;;;;;;7.10;1.60;;;;;;;12.36;83.40;100899.13;84734;1330;25436;-72
2022/07/17 01:04:16;;;;;;;3.10;1.60;;;;;;;12.29;83.40;100901.84;84800;1329;25253;-72
2022/07/17 01:06:25;;;;;;;2.40;1.40;;;;;;;12.24;83.29;100904.66;84794;1326;24263;-70
2022/07/17 01:08:34;;;;;;;4.20;1.50;;;;;;;12.20;83.70;100907.61;84823;1324;22590;-70
2022/07/17 01:10:43;;;;;;;2.50;1.50;;;;;;;12.14;83.66;100908.66;84814;1322;25895;-72
2022/07/17 01:12:52;;;;;;;5.40;1.50;;;;;;;12.10;83.65;100910.56;84789;1327;22596;-71
2022/07/17 01:15:01;;;;;;;4.60;1.50;;;;;;;12.04;83.66;100906.44;84848;1324;22601;-72
2022/07/17 01:17:10;;;;;;;3.40;1.40;;;;;;;11.95;83.81;100906.92;84818;1322;22844;-72
2022/07/17 01:19:19;;;;;;;4.60;2.40;;;;;;;11.88;83.89;100907.85;84815;1326;22702;-72
2022/07/17 01:21:28;;;;;;;2.10;1.30;;;;;;;11.85;84.01;100910.75;84814;1326;22579;-72
2022/07/17 01:23:37;;;;;;;3.90;1.20;;;;;;;11.82;84.14;100907.54;84825;1325;22615;-70
2022/07/17 01:25:46;;;;;;;3.80;1.40;;;;;;;11.78;84.09;100914.98;84816;1327;22698;-72
2022/07/17 01:27:54;;;;;;;4.20;1.80;;;;;;;11.75;84.50;100916.32;84796;1324;23935;-69
2022/07/17 01:30:03;;;;;;;2.90;1.60;;;;;;;11.70;84.42;100915.43;84820;1327;23898;-72
2022/07/17 01:32:12;;;;;;;4.20;1.30;;;;;;;11.67;84.56;100914.86;84800;1327;25298;-70
2022/07/17 01:34:21;;;;;;;2.50;1.20;;;;;;;11.60;84.18;100914.20;84819;1325;22580;-69
2022/07/17 01:36:30;;;;;;;1.60;1.40;;;;;;;11.53;84.51;100914.43;84810;1327;22608;-72
2022/07/17 01:38:39;;;;;;;1.50;1.20;;;;;;;11.47;84.50;100912.55;84775;1323;22741;-71
2022/07/17 01:40:48;;;;;;;3.70;1.40;;;;;;;11.44;84.60;100920.48;84800;1327;22608;-69
2022/07/17 01:42:57;;;;;;;2.50;1.90;;;;;;;11.42;84.92;100921.61;84827;1323;26498;-72
2022/07/17 01:45:06;;;;;;;2.90;1.60;;;;;;;11.40;85.02;100923.59;84790;1325;22620;-72
2022/07/17 01:47:16;;;;;;;4.50;1.70;;;;;;;11.39;85.16;100923.13;84825;1322;22638;-74
2022/07/17 01:49:25;;;;;;;3.40;1.50;;;;;;;11.38;85.14;100920.73;84821;1324;23903;-73
2022/07/17 01:51:34;;;;;;;4.00;1.80;;;;;;;11.34;85.06;100925.89;84828;1324;22878;-72
2022/07/17 01:53:43;;;;;;;2.20;1.90;;;;;;;11.30;85.28;100925.33;84802;1324;24135;-71
2022/07/17 01:55:52;;;;;;;3.70;2.10;;;;;;;11.27;85.16;100927.88;84751;1326;25471;-71
2022/07/17 01:58:01;;;;;;;3.50;1.90;;;;;;;11.27;85.62;100935.03;84812;1325;22593;-70
2022/07/17 02:00:14;;;;;;;6.00;1.50;;;;;;;11.26;85.62;100936.45;84819;1325;22808;-71
2022/07/17 02:02:23;;;;;;;3.30;1.80;;;;;;;11.25;85.59;100937.35;84800;1326;22846;-71
2022/07/17 02:04:32;;;;;;;2.30;1.60;;;;;;;11.25;85.91;100939.27;84815;1321;22586;-70
2022/07/17 02:06:41;;;;;;;3.70;1.90;;;;;;;11.27;86.01;100941.48;84808;1327;22670;-72
2022/07/17 02:08:51;;;;;;;2.40;1.80;;;;;;;11.28;85.94;100939.71;84808;1323;22588;-72
2022/07/17 02:11:00;;;;;;;3.30;1.90;;;;;;;11.27;85.83;100941.81;84794;1324;22596;-72
2022/07/17 02:13:09;;;;;;;5.00;1.90;;;;;;;11.27;86.15;100944.63;84812;1326;25329;-71
2022/07/17 02:15:18;;;;;;;6.60;2.10;;;;;;;11.27;86.40;100940.62;84834;1322;24363;-73
2022/07/17 02:17:27;;;;;;;3.50;2.50;;;;;;;11.25;86.23;100944.86;84818;1327;22654;-72
2022/07/17 02:19:37;;;;;;;4.10;2.00;;;;;;;11.25;86.45;100946.10;84778;1322;22758;-72
2022/07/17 02:21:46;;;;;;;2.90;2.00;;;;;;;11.23;86.29;100946.85;84800;1326;25298;-72
2022/07/17 02:23:55;;;;;;;4.30;2.30;;;;;;;11.22;86.38;100943.90;84834;1322;23140;-72
2022/07/17 02:26:04;;;;;;;2.80;1.90;;;;;;;11.22;86.40;100943.21;84786;1325;23898;-71
2022/07/17 02:28:14;;;;;;;8.10;2.10;;;;;;;11.20;86.45;100944.84;84804;1326;22585;-69
2022/07/17 02:30:23;;;;;;;5.00;3.20;;;;;;;11.18;86.51;100941.77;84813;1326;22574;-72
2022/07/17 02:32:31;;;;;;;7.30;2.00;;;;;;;11.16;86.45;100942.19;84810;1323;22593;-72
2022/07/17 02:34:40;;;;;;;4.40;3.10;;;;;;;11.13;86.61;100941.91;84820;1326;24922;-72
2022/07/17 02:36:49;;;;;;;8.00;2.40;;;;;;;11.12;86.64;100944.58;84791;1326;22594;-72
2022/07/17 02:38:58;;;;;;;3.20;2.90;;;;;;;11.09;86.60;100946.94;84848;1326;25320;-73
2022/07/17 02:41:07;;;;;;;4.40;2.40;;;;;;;11.07;86.76;100946.83;84802;1321;22827;-71
2022/07/17 02:43:19;;;;;;;6.60;1.70;;;;;;;11.05;86.67;100945.31;84764;1325;22575;-71
2022/07/17 02:45:28;;;;;;;3.70;2.10;;;;;;;11.02;86.72;100947.69;84801;1321;22619;-71
2022/07/17 02:47:37;;;;;;;3.20;2.00;;;;;;;11.00;86.94;100946.36;84825;1322;22603;-72
2022/07/17 02:49:46;;;;;;;3.40;2.40;;;;;;;10.98;87.08;100944.30;84790;1326;22836;-71
2022/07/17 02:51:55;;;;;;;2.60;1.90;;;;;;;10.98;87.08;100946.92;84771;1325;22604;-71
2022/07/17 02:54:04;;;;;;;5.70;2.50;;;;;;;10.98;87.42;100945.69;84810;1322;22618;-72
2022/07/17 02:56:12;;;;;;;7.60;2.30;;;;;;;11.00;87.70;100948.98;84786;1324;24252;-72
2022/07/17 02:58:21;;;;;;;8.40;2.80;;;;;;;11.03;87.92;100950.27;84808;1326;22859;-72
2022/07/17 03:00:30;;;;;;;4.80;2.40;;;;;;;11.06;87.95;100949.48;84749;1326;22827;-72
2022/07/17 03:02:39;;;;;;;5.70;2.60;;;;;;;11.09;88.05;100950.95;84746;1326;22604;-70
2022/07/17 03:04:47;;;;;;;6.50;2.30;;;;;;;11.14;88.18;100952.38;84749;1326;23044;-71
2022/07/17 03:06:56;;;;;;;5.00;3.80;;;;;;;11.18;88.18;100952.08;84765;1324;22805;-71
2022/07/17 03:09:05;;;;;;;5.10;2.60;;;;;;;11.21;88.30;100957.91;84651;1330;22607;-72
2022/07/17 03:11:14;;;;;;;6.40;2.10;;;;;;;11.24;87.96;100960.11;84778;1326;22582;-72
2022/07/17 03:13:23;;;;;;;5.20;2.30;;;;;;;11.26;88.22;100964.94;84762;1326;22636;-72
2022/07/17 03:15:32;;;;;;;3.50;3.00;;;;;;;11.27;88.11;100966.98;84787;1326;22706;-72
2022/07/17 03:17:42;;;;;;;10.40;2.90;;;;;;;11.31;88.35;100968.43;84761;1326;23030;-70
2022/07/17 03:19:51;;;;;;;5.10;2.80;;;;;;;11.34;88.40;100972.17;84767;1326;25265;-71
2022/07/17 03:22:00;;;;;;;6.90;2.60;;;;;;;11.36;88.36;100977.18;84765;1327;22654;-72
2022/07/17 03:24:09;;;;;;;5.80;2.30;;;;;;;11.37;88.39;100983.41;84595;1330;24033;-71
2022/07/17 03:26:18;;;;;;;5.90;2.50;;;;;;;11.40;88.50;100981.24;84774;1318;24278;-72
2022/07/17 03:28:27;;;;;;;6.30;2.40;;;;;;;11.44;88.79;100985.69;84769;1327;25317;-71
2022/07/17 03:30:36;;;;;;;3.70;3.00;;;;;;;11.50;88.78;100987.41;84768;1326;22837;-72
2022/07/17 03:32:45;;;;;;;3.80;2.30;;;;;;;11.55;88.97;100994.75;84772;1327;22584;-70
2022/07/17 03:34:54;;;;;;;7.00;2.50;;;;;;;11.63;89.26;100992.23;84623;1328;22602;-71
2022/07/17 03:37:03;;;;;;;3.90;2.10;;;;;;;11.71;89.52;100995.80;84617;1330;22657;-70
2022/07/17 03:39:13;;;;;;;3.50;2.60;;;;;;;11.81;89.51;100995.50;84614;1328;22636;-72
2022/07/17 03:41:22;;;;;;;4.60;2.10;;;;;;;11.90;89.61;100996.43;84624;1328;22579;-72
2022/07/17 03:43:31;;;;;;;7.00;2.70;;;;;;;11.99;89.51;100998.23;84631;1328;22659;-71
2022/07/17 03:45:40;;;;;;;6.10;3.20;;;;;;;12.07;89.59;100998.11;84629;1328;23947;-70
2022/07/17 03:47:48;;;;;;;6.40;3.00;;;;;;;12.15;89.66;100998.20;84414;1328;310449;-72
2022/07/17 03:49:57;;;;;;;4.60;2.20;;;;;;;12.23;89.44;100995.84;84604;1329;25466;-69
2022/07/17 03:52:07;;;;;;;3.70;2.00;;;;;;;12.30;89.57;100996.09;84636;1327;22584;-71
2022/07/17 03:54:16;;;;;;;3.40;2.20;;;;;;;12.39;89.42;100992.29;84612;1329;22597;-71
2022/07/17 03:56:24;;;;;;;9.00;2.70;;;;;;;12.49;89.43;100990.88;84624;1328;22610;-71
2022/07/17 03:58:33;;;;;;;3.00;2.40;;;;;;;12.58;89.45;100988.11;84649;1325;22663;-71
2022/07/17 04:00:42;;;;;;;6.20;2.50;;;;;;;12.64;88.89;100984.20;84608;1329;22832;-69
2022/07/17 04:02:51;;;;;;;5.80;2.20;;;;;;;12.67;88.76;100986.04;84642;1329;22621;-70
2022/07/17 04:05:00;;;;;;;7.20;2.00;;;;;;;12.71;88.67;100993.41;84664;1329;23000;-72
2022/07/17 04:07:26;;;;;;;8.20;2.90;;;;;;;12.76;88.45;100996.73;84647;1324;24366;-71
2022/07/17 04:09:35;;;;;;;3.50;2.50;;;;;;;12.78;88.45;100996.31;84663;1329;22611;-71
2022/07/17 04:11:44;;;;;;;3.20;2.20;;;;;;;12.79;87.82;101000.44;84613;1329;22564;-70
2022/07/17 04:13:53;;;;;;;3.10;2.10;;;;;;;12.83;88.10;101001.88;84601;1328;22609;-72
2022/07/17 04:16:02;;;;;;;4.40;2.50;;;;;;;12.89;87.99;101004.47;84613;1328;22586;-70
2022/07/17 04:18:14;;;;;;;4.80;2.40;;;;;;;12.92;87.77;101002.98;84618;1324;22864;-72
2022/07/17 04:20:23;;;;;;;5.80;2.70;;;;;;;12.96;87.89;101008.93;84622;1330;24431;-72
2022/07/17 04:22:31;;;;;;;4.20;2.20;;;;;;;13.05;87.94;101007.90;84627;1328;22595;-71
2022/07/17 04:24:40;;;;;;;2.40;2.10;;;;;;;13.12;87.73;101009.19;84662;1328;22584;-72
2022/07/17 04:26:49;;;;;;;4.60;2.20;;;;;;;13.24;87.90;101010.54;84633;1324;22596;-73
2022/07/17 04:28:58;;;;;;;7.10;2.40;;;;;;;13.40;88.14;101011.13;84646;1332;22709;-71
2022/07/17 04:31:07;;;;;;;6.80;2.50;;;;;;;13.54;87.92;101014.60;84603;1328;22607;-72
2022/07/17 04:33:17;;;;;;;5.30;2.40;;;;;;;13.69;87.85;101013.81;84687;1327;22582;-72
2022/07/17 04:35:26;;;;;;;4.70;2.40;;;;;;;13.82;87.22;101012.23;84773;1328;22641;-72
2022/07/17 04:37:38;;;;;;;4.40;1.70;;;;;;;14.01;87.24;101010.91;84793;1327;23917;-72
2022/07/17 04:39:47;;;;;;;4.30;2.00;;;;;;;14.20;86.85;101013.79;84778;1326;22607;-72
2022/07/17 04:41:56;;;;;;;3.60;1.90;;;;;;;14.35;86.56;101015.63;84782;1324;22594;-71
2022/07/17 04:44:05;;;;;;;3.80;2.30;;;;;;;14.57;86.83;101017.65;84775;1326;22995;-72
2022/07/17 04:46:15;;;;;;;3.60;1.60;;;;;;;14.85;86.15;101013.75;84762;1326;22577;-71
2022/07/17 04:48:24;;;;;;;4.50;1.90;;;;;;;15.00;84.49;101015.34;84763;1326;23777;-72
2022/07/17 04:50:32;;;;;;;4.10;1.60;;;;;;;15.07;84.15;101012.25;84753;1326;22586;-72
2022/07/17 04:52:41;;;;;;;2.10;1.70;;;;;;;15.55;84.65;101004.14;84810;1327;22766;-72
2022/07/17 04:54:50;;;;;;;4.20;1.70;;;;;;;16.16;84.55;101008.52;84721;1327;22616;-72
2022/07/17 04:56:59;;;;;;;4.20;1.40;;;;;;;16.47;82.55;101013.61;84742;1326;25465;-72
2022/07/17 04:59:08;;;;;;;5.10;2.00;;;;;;;16.58;81.13;101014.25;84786;1322;23120;-70
2022/07/17 05:01:17;;;;;;;7.30;1.90;;;;;;;16.58;80.24;101018.88;84758;1328;22725;-72
2022/07/17 05:03:26;;;;;;;4.20;1.70;;;;;;;16.59;79.42;101022.83;84767;1327;22591;-70
2022/07/17 05:05:34;;;;;;;8.50;2.20;;;;;;;16.65;78.61;101023.23;84758;1326;22612;-71
2022/07/17 05:07:43;;;;;;;2.70;1.70;;;;;;;16.76;77.99;101023.03;84779;1327;25444;-72
2022/07/17 05:09:53;;;;;;;3.10;1.90;;;;;;;17.00;78.14;101023.33;84790;1325;23962;-72
2022/07/17 05:12:07;;;;;;;2.20;1.40;;;;;;;17.25;78.14;101018.95;84791;1326;22653;-72
2022/07/17 05:14:16;;;;;;;3.60;1.60;;;;;;;17.89;78.13;101024.53;84749;1322;24242;-73
2022/07/17 05:16:25;;;;;;;5.90;1.80;;;;;;;18.03;75.64;101025.77;84782;1326;25467;-70
2022/07/17 05:18:34;;;;;;;4.20;1.80;;;;;;;18.11;74.80;101026.24;84789;1326;22591;-70
2022/07/17 05:20:45;;;;;;;3.90;1.70;;;;;;;18.60;74.45;101033.57;84753;1326;22670;-72
2022/07/17 05:22:54;;;;;;;2.80;1.60;;;;;;;18.63;71.73;101034.92;84778;1326;22603;-70
2022/07/17 05:25:03;;;;;;;4.40;1.90;;;;;;;18.55;71.08;101034.86;84790;1326;22604;-70
2022/07/17 05:27:12;;;;;;;3.10;1.70;;;;;;;19.25;71.93;101031.27;84749;1326;22599;-70
2022/07/17 05:29:21;;;;;;;5.50;1.60;;;;;;;20.28;71.15;101028.77;84769;1327;22798;-70
2022/07/17 05:31:30;;;;;;;5.60;1.40;;;;;;;21.41;68.29;101025.44;84755;1324;22589;-72
2022/07/17 05:33:38;;;;;;;5.60;1.80;;;;;;;21.62;64.66;101029.45;84767;1327;25514;-71
2022/07/17 05:35:47;;;;;;;7.10;1.50;;;;;;;21.33;63.29;101035.05;84764;1324;22885;-72
2022/07/17 05:37:57;;;;;;;3.70;1.80;;;;;;;21.10;62.86;101037.60;84768;1326;24369;-72
2022/07/17 05:40:08;;;;;;;6.50;1.50;;;;;;;21.09;62.80;101038.75;84791;1326;25296;-70
2022/07/17 05:42:18;;;;;;;3.70;1.40;;;;;;;20.91;62.11;101041.27;84784;1324;22881;-71
2022/07/17 05:44:27;;;;;;;2.90;1.30;;;;;;;20.63;62.02;101045.31;84726;1327;24110;-71
2022/07/17 05:46:35;;;;;;;4.30;2.10;;;;;;;20.44;62.00;101048.95;84750;1318;22581;-71
2022/07/17 05:48:46;;;;;;;4.80;1.80;;;;;;;20.17;62.30;101050.61;84709;1328;22623;-70
2022/07/17 05:50:56;;;;;;;7.50;1.60;;;;;;;20.04;62.82;101054.48;84780;1327;23345;-70
2022/07/17 05:53:07;;;;;;;6.90;1.50;;;;;;;20.32;64.50;101060.73;84705;1326;22851;-72
2022/07/17 05:55:16;;;;;;;3.80;2.10;;;;;;;20.78;63.10;101058.27;84767;1326;24245;-73
2022/07/17 05:57:25;;;;;;;6.60;1.90;;;;;;;20.84;62.07;101059.52;84732;1326;25880;-70
2022/07/17 05:59:34;;;;;;;2.60;1.60;;;;;;;21.41;62.87;101059.30;84631;1329;22712;-71
2022/07/17 06:01:43;;;;;;;6.70;1.80;;;;;;;22.06;61.04;101062.70;84756;1330;23951;-71
2022/07/17 06:03:52;;;;;;;4.20;1.80;;;;;;;22.57;58.72;101063.30;84611;1329;22619;-72
2022/07/17 06:06:01;;;;;;;7.00;1.70;;;;;;;22.59;57.71;101066.66;84753;1323;22530;-72
2022/07/17 06:08:14;;;;;;;3.10;1.40;;;;;;;23.00;58.23;101068.96;84739;1325;22816;-72
2022/07/17 06:10:23;;;;;;;4.30;1.40;;;;;;;23.80;56.13;101064.55;84743;1326;22801;-71
2022/07/17 06:12:32;;;;;;;3.40;1.40;;;;;;;24.03;53.62;101065.66;84775;1326;22613;-71
2022/07/17 06:14:41;;;;;;;2.90;1.20;;;;;;;23.93;53.12;101066.85;84768;1326;24214;-73
2022/07/17 06:16:50;;;;;;;5.70;1.40;;;;;;;23.67;53.37;101073.94;84747;1328;22833;-71
2022/07/17 06:18:59;;;;;;;4.30;1.60;;;;;;;23.55;52.95;101074.56;84733;1327;22981;-70
2022/07/17 06:21:08;;;;;;;6.50;1.70;;;;;;;23.42;52.88;101078.08;84742;1324;22568;-70
2022/07/17 06:23:17;;;;;;;5.30;2.40;;;;;;;23.27;52.75;101080.77;84761;1327;23946;-70
2022/07/17 06:25:26;;;;;;;2.90;1.60;;;;;;;23.16;52.88;101082.33;84685;1329;22567;-71
2022/07/17 06:27:35;;;;;;;2.80;1.60;;;;;;;23.06;53.30;101085.94;84744;1326;22592;-69
2022/07/17 06:29:44;;;;;;;5.00;1.70;;;;;;;23.82;53.35;101082.21;84697;1327;22679;-70
2022/07/17 06:31:51;;;;;;;;;;;;;;;24.17;52.11;101076.56;84787;1326;22610;-70
2022/07/17 06:34:00;;;;;;;4.50;1.60;;;;;;;24.35;51.07;101079.21;84752;1326;23883;-71
2022/07/17 06:36:10;;;;;;;9.50;1.50;;;;;;;24.75;50.59;101083.47;84745;1326;22584;-71
2022/07/17 06:38:18;;;;;;;4.00;1.30;;;;;;;25.17;48.88;101086.78;84764;1326;22896;-70
2022/07/17 06:40:27;;;;;;;2.60;1.00;;;;;;;24.97;48.43;101088.10;84740;1322;22611;-70
2022/07/17 06:42:36;;;;;;;3.40;1.30;;;;;;;24.84;48.78;101089.05;84754;1326;22857;-69
2022/07/17 06:44:45;;;;;;;3.30;1.30;;;;;;;24.76;48.47;101091.60;84741;1326;25498;-70
2022/07/17 06:46:54;;;;;;;5.60;1.70;;;;;;;24.44;48.54;101095.55;84738;1326;22587;-72
2022/07/17 06:49:02;;;;;;;3.70;1.30;;;;;;;23.90;48.65;101101.11;84692;1327;22838;-70
2022/07/17 06:51:11;;;;;;;2.60;1.70;;;;;;;23.78;50.45;101106.56;84768;1327;22722;-70
2022/07/17 06:53:20;;;;;;;6.50;1.70;;;;;;;24.22;50.10;101104.19;84763;1327;22885;-69
2022/07/17 06:55:29;;;;;;;3.30;1.50;;;;;;;24.09;49.94;101102.20;84757;1326;22658;-70
2022/07/17 06:57:41;;;;;;;4.60;1.80;;;;;;;23.88;49.65;101106.84;84736;1326;22755;-70
2022/07/17 06:59:49;;;;;;;2.90;1.70;;;;;;;23.65;49.66;101109.75;84769;1326;22601;-70
2022/07/17 07:01:59;;;;;;;6.20;2.10;;;;;;;23.28;49.80;101110.02;84749;1326;25457;-69
2022/07/17 07:04:08;;;;;;;5.50;1.80;;;;;;;22.79;49.99;101108.54;84800;1327;22732;-70
2022/07/17 07:06:17;;;;;;;4.10;1.60;;;;;;;22.35;51.54;101108.00;84749;1325;22842;-69
2022/07/17 07:08:26;;;;;;;3.70;1.60;;;;;;;22.00;52.42;101103.36;84776;1320;23930;-69
2022/07/17 07:10:35;;;;;;;2.80;1.40;;;;;;;22.09;54.15;101107.79;84754;1323;22855;-70
2022/07/17 07:12:44;;;;;;;2.30;1.50;;;;;;;22.43;53.50;101105.58;84690;1329;22670;-71
2022/07/17 07:14:53;;;;;;;7.60;1.80;;;;;;;23.12;52.90;101112.54;84768;1326;22831;-71
2022/07/17 07:17:02;;;;;;;2.10;1.80;;;;;;;23.39;51.95;101114.85;84770;1326;25445;-70
2022/07/17 07:19:13;;;;;;;6.10;1.90;;;;;;;23.31;51.72;101119.59;84797;1326;22596;-69
2022/07/17 07:21:24;;;;;;;2.70;2.00;;;;;;;23.00;51.78;101116.33;84769;1322;22808;-69
2022/07/17 07:23:35;;;;;;;6.40;1.80;;;;;;;22.89;52.07;101118.78;84774;1326;25523;-70
2022/07/17 07:25:44;;;;;;;;;;;;;;;22.63;51.95;101121.83;84761;1326;22581;-70
2022/07/17 07:27:53;;;;;;;3.90;1.70;;;;;;;22.28;52.46;101123.63;84784;1326;22868;-71
2022/07/17 07:30:02;;;;;;;2.60;1.70;;;;;;;22.11;53.07;101126.88;84747;1326;24230;-70
2022/07/17 07:32:10;;;;;;;6.30;1.50;;;;;;;21.96;53.14;101132.20;84771;1326;26018;-71
2022/07/17 07:34:19;;;;;;;3.70;1.60;;;;;;;21.86;53.81;101132.02;84734;1322;24444;-72
2022/07/17 07:36:28;;;;;;;6.60;1.80;;;;;;;22.33;55.06;101132.36;84751;1330;22574;-71
2022/07/17 07:38:39;;;;;;;4.10;1.40;;;;;;;22.49;54.18;101134.32;84748;1324;22587;-72
2022/07/17 07:40:48;;;;;;;4.80;2.40;;;;;;;22.58;54.12;101134.20;84763;1326;24391;-69
2022/07/17 07:42:57;;;;;;;6.30;1.60;;;;;;;23.16;54.40;101132.11;84754;1325;22620;-70
2022/07/17 07:45:08;;;;;;;4.40;1.80;;;;;;;23.90;53.27;101128.41;84791;1324;22549;-71
2022/07/17 07:47:17;;;;;;;4.00;1.50;;;;;;;24.47;52.12;101128.33;84739;1326;24285;-72
2022/07/17 07:49:26;;;;;;;3.20;1.90;;;;;;;24.54;51.27;101128.28;84768;1325;22662;-73
2022/07/17 07:51:35;;;;;;;4.60;1.80;;;;;;;24.60;50.35;101132.34;84702;1327;22565;-69
2022/07/17 07:53:43;;;;;;;4.00;1.60;;;;;;;25.23;50.64;101134.05;84782;1327;22584;-72
2022/07/17 07:55:52;;;;;;;5.30;1.30;;;;;;;26.03;48.89;101127.68;84756;1324;22614;-71
2022/07/17 07:58:09;;;;;;;4.80;1.60;;;;;;;26.47;47.82;101131.52;84753;1326;22947;-73
2022/07/17 08:00:19;;;;;;;9.10;2.00;;;;;;;27.11;46.88;101131.88;84796;1325;22617;-70
2022/07/17 08:02:28;;;;;;;2.70;1.20;;;;;;;27.84;45.08;101135.96;84774;1326;23796;-72
2022/07/17 08:04:37;;;;;;;3.50;1.40;;;;;;;28.07;43.80;101132.89;84762;1327;25314;-71
2022/07/17 08:06:46;;;;;;;3.20;1.30;;;;;;;28.15;43.09;101134.30;84735;1326;25427;-71
2022/07/17 08:08:55;;;;;;;4.50;1.20;;;;;;;28.41;42.51;101137.96;84718;1327;22548;-71
2022/07/17 08:11:04;;;;;;;4.20;1.20;;;;;;;28.65;41.69;101134.23;84753;1328;22607;-72
2022/07/17 08:13:13;;;;;;;4.90;1.10;;;;;;;28.86;41.64;101134.56;84758;1324;22626;-70
2022/07/17 08:15:24;;;;;;;6.00;2.00;;;;;;;28.99;41.22;101131.46;84720;1327;22947;-70
2022/07/17 08:17:33;;;;;;;2.60;1.10;;;;;;;29.45;40.94;101133.46;84759;1327;22588;-71
2022/07/17 08:19:42;;;;;;;1.80;1.00;;;;;;;30.06;39.31;101122.11;84774;1327;24174;-70
2022/07/17 08:21:51;;;;;;;2.20;0.90;;;;;;;30.41;37.49;101125.33;84788;1327;22581;-70
2022/07/17 08:24:00;;;;;;;1.30;0.70;;;;;;;30.41;37.16;101123.67;84776;1326;26461;-70
2022/07/17 08:26:09;;;;;;;2.00;0.80;;;;;;;30.38;37.22;101120.77;84785;1326;22704;-70
2022/07/17 08:28:16;;;;;;;;;;;;;;;30.79;37.39;101121.21;84789;1326;22583;-70
2022/07/17 08:30:25;;;;;;;2.40;1.00;;;;;;;31.19;36.05;101122.14;84751;1327;23074;-71
2022/07/17 08:32:34;;;;;;;3.10;1.20;;;;;;;31.74;35.85;101125.05;84752;1326;24271;-71
2022/07/17 08:34:44;;;;;;;1.70;0.90;;;;;;;32.23;35.41;101122.73;84691;1327;22716;-70
2022/07/17 08:36:53;;;;;;;1.30;0.80;;;;;;;32.75;34.79;101118.67;84782;1326;22600;-72
2022/07/17 08:39:00;;;;;;;;;;;;;;;33.15;33.70;101120.93;84805;1326;25349;-72
2022/07/17 08:41:15;;;;;;;2.70;1.50;;;;;;;33.54;32.62;101126.59;84780;1326;22800;-72
2022/07/17 08:43:24;;;;;;;4.70;1.50;;;;;;;33.66;31.73;101128.16;84778;1326;23930;-70
2022/07/17 08:45:31;;;;;;;;;;;;;;;33.89;32.01;101125.81;84772;1326;22598;-71
2022/07/17 08:47:41;;;;;;;2.90;1.10;;;;;;;33.81;31.72;101128.64;84742;1326;22636;-71
2022/07/17 08:49:51;;;;;;;4.10;1.00;;;;;;;33.11;31.55;101128.02;84770;1326;24177;-73
2022/07/17 08:52:00;;;;;;;1.60;0.80;;;;;;;32.96;31.41;101127.09;84760;1328;22587;-72
2022/07/17 08:54:09;;;;;;;2.20;0.80;;;;;;;33.24;31.57;101130.11;84752;1327;22596;-73
2022/07/17 08:56:18;;;;;;;2.50;0.80;;;;;;;33.64;30.37;101129.68;84747;1326;22847;-71
2022/07/17 08:58:26;;;;;;;;;;;;;;;34.15;30.17;101124.98;84756;1329;22569;-72
2022/07/17 09:00:34;;;;;;;4.80;1.00;;;;;;;34.00;29.00;101129.38;84720;1327;22603;-72
2022/07/17 09:02:55;;;;;;;3.00;0.80;;;;;;;33.22;29.29;101131.59;84745;1326;22607;-71
2022/07/17 09:05:04;;;;;;;1.80;0.70;;;;;;;32.60;29.94;101134.36;84782;1327;22691;-70
2022/07/17 09:07:11;;;;;;;;;;;;;;;32.04;30.44;101137.38;84783;1327;22561;-71
2022/07/17 09:09:20;;;;;;;2.70;1.00;;;;;;;31.35;31.46;101141.08;84709;1327;22715;-72
2022/07/17 09:11:30;;;;;;;2.60;0.80;;;;;;;31.45;32.16;101140.17;84766;1326;22655;-71
2022/07/17 09:13:42;;;;;;;1.80;0.80;;;;;;;31.33;31.44;101139.27;84778;1327;22616;-71
2022/07/17 09:15:53;;;;;;;1.70;0.70;;;;;;;30.77;32.08;101137.14;84712;1327;22615;-71
2022/07/17 09:18:02;;;;;;;2.40;0.90;;;;;;;30.51;32.30;101140.89;84785;1327;22627;-70
2022/07/17 09:20:19;;;;;;;2.90;0.70;;;;;;;30.44;33.26;101138.28;84788;1327;22596;-69
2022/07/17 09:22:29;;;;;;;2.10;1.10;;;;;;;30.73;32.68;101138.29;84759;1321;22857;-69
2022/07/17 09:24:49;;;;;;;1.30;0.90;;;;;;;31.00;32.65;101139.21;84754;1330;22866;-69
2022/07/17 09:26:58;;;;;;;2.20;0.70;;;;;;;31.23;32.62;101140.09;84748;1327;24994;-69
2022/07/17 09:29:07;;;;;;;2.80;1.00;;;;;;;31.30;31.88;101140.36;84748;1327;22604;-70
2022/07/17 09:31:24;;;;;;;4.50;1.60;;;;;;;30.88;31.50;101142.01;84754;1326;22576;-71
2022/07/17 09:33:36;;;;;;;1.00;0.80;;;;;;;30.48;31.99;101145.21;84796;1326;22568;-71
2022/07/17 09:35:51;;;;;;;1.00;0.70;;;;;;;30.31;32.61;101150.33;84765;1327;22699;-70
2022/07/17 09:37:59;;;;;;;1.20;0.50;;;;;;;30.18;32.82;101145.50;84729;1326;24294;-70
2022/07/17 09:41:09;;;;;;;4.10;0.80;;;;;;;30.03;33.02;101148.08;84786;1326;25747;-69
2022/07/17 09:42:42;;;;;;;3.00;0.70;;;;;;;29.40;31.92;101151.06;84759;1326;22600;-72
2022/07/17 09:45:01;;;;;;;3.40;0.80;;;;;;;28.73;33.43;101145.16;84811;1326;22592;-69
2022/07/17 09:47:10;;;;;;;2.50;0.80;;;;;;;28.29;33.91;101150.09;84765;1322;22652;-70
2022/07/17 09:49:18;;;;;;;2.00;0.80;;;;;;;27.86;34.69;101149.52;84802;1327;22915;-68
2022/07/17 09:51:29;;;;;;;1.60;0.70;;;;;;;27.33;34.32;101151.11;84784;1322;22885;-68
2022/07/17 09:53:38;;;;;;;3.90;0.60;;;;;;;26.79;34.55;101147.83;84774;1327;23898;-70
2022/07/17 09:55:47;;;;;;;1.40;0.80;;;;;;;26.30;34.82;101152.70;84741;1321;24259;-72
2022/07/17 09:57:55;;;;;;;2.20;0.90;;;;;;;25.82;36.19;101160.67;84776;1327;22750;-70
2022/07/17 10:00:06;;;;;;;0.80;0.80;;;;;;;25.35;37.67;101164.13;84795;1327;22590;-70
2022/07/17 10:02:15;;;;;;;2.20;0.70;;;;;;;24.92;38.12;101168.68;84771;1323;25268;-69
2022/07/17 10:04:24;;;;;;;2.50;0.70;;;;;;;24.62;39.57;101167.48;84782;1322;23182;-70